createdAt,value
2019-03-24T00:01:46.743Z,195.13
2019-03-24T00:04:15.990Z,241.23
2019-03-24T00:06:45.091Z,220.27
2019-03-24T00:09:13.240Z,232.27
2019-03-24T00:11:41.780Z,221.17
2019-03-24T00:14:10.054Z,222.10
2019-03-24T00:16:38.471Z,208.10
2019-03-24T00:19:07.200Z,219.83
2019-03-24T00:21:35.809Z,224.73
2019-03-24T00:24:04.367Z,223.07
2019-03-24T00:26:33.085Z,217.23
2019-03-24T00:29:01.461Z,216.43
2019-03-24T00:31:29.796Z,211.13
2019-03-24T00:33:58.308Z,215.07
2019-03-24T00:36:26.569Z,198.47
2019-03-24T00:38:55.177Z,209.70
2019-03-24T00:41:23.774Z,237.93
2019-03-24T00:43:52.066Z,207.73
2019-03-24T00:46:20.551Z,198.77
2019-03-24T00:48:49.039Z,215.00
2019-03-24T00:51:17.469Z,207.43
2019-03-24T00:53:45.745Z,205.53
2019-03-24T00:56:13.937Z,212.90
2019-03-24T00:58:42.061Z,215.53
2019-03-24T01:01:10.331Z,213.90
2019-03-24T01:03:39.363Z,210.37
2019-03-24T01:06:07.670Z,204.73
2019-03-24T01:08:36.002Z,206.80
2019-03-24T01:11:04.566Z,207.10
2019-03-24T01:13:32.905Z,223.43
2019-03-24T01:16:01.182Z,202.33
2019-03-24T01:18:29.781Z,215.30
2019-03-24T01:20:58.391Z,239.17
2019-03-24T01:23:26.606Z,216.07
2019-03-24T01:25:55.001Z,212.63
2019-03-24T01:28:23.263Z,205.47
2019-03-24T01:30:51.445Z,200.30
2019-03-24T01:33:19.891Z,206.13
2019-03-24T01:35:48.239Z,209.70
2019-03-24T01:38:16.602Z,196.07
2019-03-24T01:40:44.971Z,197.93
2019-03-24T01:43:13.247Z,201.43
2019-03-24T01:45:41.500Z,207.83
2019-03-24T01:48:09.734Z,202.67
2019-03-24T01:50:38.170Z,222.97
2019-03-24T01:53:06.394Z,206.70
2019-03-24T01:55:34.667Z,209.53
2019-03-24T01:58:02.994Z,230.77
2019-03-24T02:00:31.265Z,198.27
2019-03-24T02:02:59.715Z,214.53
2019-03-24T02:05:27.822Z,211.63
2019-03-24T02:07:56.169Z,219.13
2019-03-24T02:10:24.524Z,213.33
2019-03-24T02:12:52.878Z,225.57
2019-03-24T02:15:21.231Z,214.17
2019-03-24T02:17:49.505Z,215.30
2019-03-24T02:20:17.783Z,208.87
2019-03-24T02:22:46.126Z,213.53
2019-03-24T02:25:14.520Z,204.73
2019-03-24T02:27:42.738Z,235.90
2019-03-24T02:30:14.715Z,212.97
2019-03-24T02:32:43.191Z,212.33
2019-03-24T02:35:11.544Z,246.90
2019-03-24T02:37:39.855Z,211.07
2019-03-24T02:40:08.660Z,207.43
2019-03-24T02:42:37.028Z,221.63
2019-03-24T02:45:06.533Z,214.47
2019-03-24T02:47:35.034Z,216.60
2019-03-24T02:50:03.795Z,226.33
2019-03-24T02:52:32.061Z,211.30
2019-03-24T02:55:00.520Z,225.17
2019-03-24T02:57:28.795Z,201.43
2019-03-24T02:59:57.021Z,228.97
2019-03-24T03:02:25.273Z,219.73
2019-03-24T03:04:53.821Z,240.50
2019-03-24T03:07:22.179Z,232.33
2019-03-24T03:09:50.579Z,233.60
2019-03-24T03:12:19.492Z,243.20
2019-03-24T03:14:47.851Z,239.50
2019-03-24T03:17:16.352Z,234.77
2019-03-24T03:19:45.708Z,235.27
2019-03-24T03:22:14.970Z,222.67
2019-03-24T03:24:43.487Z,234.57
2019-03-24T03:27:11.705Z,216.47
2019-03-24T03:29:40.125Z,232.50
2019-03-24T03:32:08.397Z,211.37
2019-03-24T03:34:36.644Z,220.40
2019-03-24T03:37:04.999Z,208.47
2019-03-24T03:39:33.200Z,214.07
2019-03-24T03:42:01.566Z,198.70
2019-03-24T03:44:29.775Z,208.57
2019-03-24T03:46:58.084Z,220.47
2019-03-24T03:49:26.234Z,235.23
2019-03-24T03:51:54.364Z,202.13
2019-03-24T03:54:23.478Z,204.23
2019-03-24T03:56:51.575Z,199.27
2019-03-24T03:59:20.083Z,213.23
2019-03-24T04:01:48.299Z,202.57
2019-03-24T04:04:17.703Z,223.03
2019-03-24T04:06:45.845Z,187.87
2019-03-24T04:09:13.980Z,204.30
2019-03-24T04:11:42.213Z,203.27
2019-03-24T04:14:10.327Z,203.63
2019-03-24T04:16:38.629Z,175.67
2019-03-24T04:19:07.054Z,190.33
2019-03-24T04:21:35.221Z,196.00
2019-03-24T04:24:03.782Z,184.33
2019-03-24T04:26:31.994Z,168.47
2019-03-24T04:29:00.479Z,209.23
2019-03-24T04:31:28.614Z,181.27
2019-03-24T04:33:56.795Z,182.33
2019-03-24T04:36:25.042Z,180.10
2019-03-24T04:38:53.195Z,182.17
2019-03-24T04:41:21.455Z,176.60
2019-03-24T04:43:49.765Z,171.40
2019-03-24T04:46:18.114Z,167.80
2019-03-24T04:48:46.356Z,163.70
2019-03-24T04:51:14.601Z,168.13
2019-03-24T04:53:43.242Z,159.90
2019-03-24T04:56:11.603Z,172.70
2019-03-24T04:58:39.764Z,178.87
2019-03-24T05:01:08.416Z,172.70
2019-03-24T05:03:36.657Z,152.40
2019-03-24T05:06:05.015Z,165.87
2019-03-24T05:08:33.863Z,150.63
2019-03-24T05:11:02.567Z,146.90
2019-03-24T05:13:37.316Z,146.50
2019-03-24T05:16:05.815Z,138.30
2019-03-24T05:18:34.165Z,154.83
2019-03-24T05:21:02.380Z,144.27
2019-03-24T05:23:30.512Z,137.00
2019-03-24T05:25:58.615Z,135.77
2019-03-24T05:28:27.021Z,141.07
2019-03-24T05:30:55.165Z,135.53
2019-03-24T05:33:23.319Z,134.87
2019-03-24T05:35:51.541Z,144.13
2019-03-24T05:38:19.891Z,145.30
2019-03-24T05:40:47.967Z,132.57
2019-03-24T05:43:16.146Z,132.00
2019-03-24T05:45:44.611Z,137.63
2019-03-24T05:48:12.803Z,127.77
2019-03-24T05:50:41.094Z,130.20
2019-03-24T05:53:09.500Z,141.60
2019-03-24T05:55:37.774Z,132.60
2019-03-24T05:58:06.047Z,125.27
2019-03-24T06:00:34.306Z,134.23
2019-03-24T06:03:02.608Z,129.03
2019-03-24T06:05:31.752Z,134.60
2019-03-24T06:08:00.262Z,145.23
2019-03-24T06:10:28.712Z,132.70
2019-03-24T06:12:56.874Z,132.03
2019-03-24T06:15:25.132Z,149.53
2019-03-24T06:17:54.192Z,130.67
2019-03-24T06:20:22.316Z,126.17
2019-03-24T06:22:51.314Z,128.80
2019-03-24T06:25:19.662Z,128.93
2019-03-24T06:27:47.967Z,129.17
2019-03-24T06:30:16.453Z,130.70
2019-03-24T06:32:44.807Z,130.50
2019-03-24T06:35:13.174Z,137.30
2019-03-24T06:37:41.632Z,129.57
2019-03-24T06:40:10.170Z,132.87
2019-03-24T06:42:38.306Z,140.43
2019-03-24T06:45:08.168Z,151.47
2019-03-24T06:47:36.439Z,128.90
2019-03-24T06:50:06.102Z,138.43
2019-03-24T06:52:34.270Z,144.97
2019-03-24T06:55:02.745Z,144.67
2019-03-24T06:57:30.980Z,132.37
2019-03-24T06:59:59.300Z,138.40
2019-03-24T07:02:27.583Z,127.33
2019-03-24T07:04:55.896Z,146.73
2019-03-24T07:07:24.135Z,128.77
2019-03-24T07:09:52.337Z,139.93
2019-03-24T07:12:20.645Z,131.23
2019-03-24T07:14:48.955Z,138.17
2019-03-24T07:17:17.149Z,137.67
2019-03-24T07:19:45.528Z,136.23
2019-03-24T07:22:13.966Z,157.30
2019-03-24T07:24:42.214Z,144.43
2019-03-24T07:27:10.454Z,127.50
2019-03-24T07:29:41.143Z,143.07
2019-03-24T07:32:09.302Z,128.83
2019-03-24T07:34:37.600Z,135.27
2019-03-24T07:37:06.218Z,133.07
2019-03-24T07:39:34.315Z,133.53
2019-03-24T07:42:02.490Z,136.90
2019-03-24T07:44:30.810Z,132.87
2019-03-24T07:46:58.977Z,129.30
2019-03-24T07:49:27.364Z,139.73
2019-03-24T07:51:55.636Z,133.07
2019-03-24T07:54:23.808Z,141.10
2019-03-24T07:56:52.050Z,125.77
2019-03-24T07:59:20.433Z,162.80
2019-03-24T08:01:48.637Z,126.30
2019-03-24T08:04:16.821Z,146.90
2019-03-24T08:06:45.154Z,145.43
2019-03-24T08:09:13.290Z,143.23
2019-03-24T08:11:41.395Z,130.40
2019-03-24T08:14:09.818Z,141.00
2019-03-24T08:16:38.230Z,134.03
2019-03-24T08:19:09.924Z,153.30
2019-03-24T08:21:41.547Z,136.17
2019-03-24T08:24:09.934Z,141.67
2019-03-24T08:26:39.696Z,136.83
2019-03-24T08:29:08.172Z,152.13
2019-03-24T08:31:36.389Z,131.40
2019-03-24T08:34:04.989Z,145.40
2019-03-24T08:36:33.752Z,150.10
2019-03-24T08:39:05.593Z,144.80
2019-03-24T08:41:34.153Z,135.97
2019-03-24T08:44:02.552Z,142.13
2019-03-24T08:46:30.977Z,139.87
2019-03-24T08:49:01.031Z,155.20
2019-03-24T08:51:29.307Z,151.07
2019-03-24T08:53:57.642Z,132.43
2019-03-24T08:56:25.993Z,139.13
2019-03-24T08:58:54.503Z,134.10
2019-03-24T09:01:22.783Z,135.57
2019-03-24T09:03:51.308Z,134.90
2019-03-24T09:06:19.744Z,136.07
2019-03-24T09:08:51.124Z,141.40
2019-03-24T09:11:19.517Z,135.57
2019-03-24T09:13:47.637Z,147.93
2019-03-24T09:16:15.997Z,148.70
2019-03-24T09:18:52.421Z,150.53
2019-03-24T09:21:15.201Z,144.50
2019-03-24T09:23:44.256Z,137.10
2019-03-24T09:26:12.885Z,153.60
2019-03-24T09:28:41.526Z,142.57
2019-03-24T09:31:09.707Z,135.50
2019-03-24T09:33:37.825Z,142.43
2019-03-24T09:36:07.202Z,134.77
2019-03-24T09:38:35.591Z,138.90
2019-03-24T09:41:05.540Z,143.47
2019-03-24T09:43:34.757Z,142.47
2019-03-24T09:46:03.635Z,145.10
2019-03-24T09:48:32.209Z,139.00
2019-03-24T09:51:00.430Z,155.13
2019-03-24T09:53:28.723Z,142.40
2019-03-24T09:55:57.333Z,158.57
2019-03-24T09:58:26.232Z,151.67
2019-03-24T10:00:54.573Z,153.43
2019-03-24T10:03:24.703Z,145.63
2019-03-24T10:05:53.052Z,139.87
2019-03-24T10:08:21.774Z,141.40
2019-03-24T10:10:50.276Z,142.73
2019-03-24T10:13:19.135Z,145.47
2019-03-24T10:15:47.401Z,142.33
2019-03-24T10:18:15.657Z,146.77
2019-03-24T10:20:43.818Z,140.27
2019-03-24T10:23:12.111Z,140.17
2019-03-24T10:25:41.434Z,181.43
2019-03-24T10:28:09.762Z,147.63
2019-03-24T10:30:38.796Z,140.20
2019-03-24T10:33:08.321Z,154.20
2019-03-24T10:35:38.322Z,144.63
2019-03-24T10:38:07.016Z,141.50
2019-03-24T10:40:35.424Z,153.30
2019-03-24T10:43:04.294Z,139.77
2019-03-24T10:45:33.070Z,146.33
2019-03-24T10:48:01.247Z,140.63
2019-03-24T10:50:29.445Z,167.73
2019-03-24T10:52:57.812Z,145.37
2019-03-24T10:55:26.080Z,145.60
2019-03-24T10:57:54.750Z,151.23
2019-03-24T11:00:43.746Z,146.07
2019-03-24T11:03:12.319Z,151.93
2019-03-24T11:05:44.247Z,156.13
2019-03-24T11:08:16.169Z,154.77
2019-03-24T11:10:44.727Z,156.10
2019-03-24T11:13:12.983Z,156.77
2019-03-24T11:15:45.664Z,185.13
2019-03-24T11:18:14.076Z,153.03
2019-03-24T11:20:42.649Z,164.97
2019-03-24T11:23:17.669Z,189.53
2019-03-24T11:25:50.513Z,157.27
2019-03-24T11:28:21.442Z,175.63
2019-03-24T11:30:49.778Z,156.13
2019-03-24T11:33:18.025Z,178.47
2019-03-24T11:35:48.010Z,175.80
2019-03-24T11:38:16.701Z,172.73
2019-03-24T11:40:45.824Z,160.57
2019-03-24T11:43:15.240Z,166.77
2019-03-24T11:45:46.157Z,178.37
2019-03-24T11:48:15.348Z,176.70
2019-03-24T11:50:44.356Z,163.67
2019-03-24T11:53:13.047Z,168.30
2019-03-24T11:55:41.912Z,170.13
2019-03-24T11:58:11.625Z,172.57
2019-03-24T12:00:40.516Z,154.83
2019-03-24T12:03:09.751Z,164.03
2019-03-24T12:05:38.230Z,202.17
2019-03-24T12:08:06.980Z,162.53
2019-03-24T12:10:35.691Z,167.50
2019-03-24T12:13:04.273Z,160.73
2019-03-24T12:15:33.177Z,159.37
2019-03-24T12:18:01.668Z,161.97
2019-03-24T12:20:30.120Z,163.10
2019-03-24T12:22:58.486Z,152.00
2019-03-24T12:25:26.769Z,161.77
2019-03-24T12:27:55.180Z,153.57
2019-03-24T12:30:23.707Z,157.60
2019-03-24T12:32:52.110Z,156.93
2019-03-24T12:35:20.906Z,182.53
2019-03-24T12:37:50.529Z,156.93
2019-03-24T12:40:18.915Z,165.40
2019-03-24T12:42:47.439Z,191.70
2019-03-24T12:45:15.939Z,158.40
2019-03-24T12:47:45.178Z,161.03
2019-03-24T12:50:14.902Z,161.47
2019-03-24T12:52:43.374Z,159.10
2019-03-24T12:55:12.673Z,167.33
2019-03-24T12:57:44.039Z,163.27
2019-03-24T13:00:14.447Z,162.00
2019-03-24T13:02:42.924Z,159.23
2019-03-24T13:05:11.823Z,157.37
2019-03-24T13:07:40.244Z,159.50
2019-03-24T13:10:09.281Z,159.03
2019-03-24T13:12:37.482Z,192.90
2019-03-24T13:15:06.970Z,160.40
2019-03-24T13:17:36.640Z,163.87
2019-03-24T13:20:05.987Z,168.40
2019-03-24T13:22:34.521Z,157.77
2019-03-24T13:25:03.703Z,167.83
2019-03-24T13:27:32.120Z,154.97
2019-03-24T13:30:00.749Z,170.97
2019-03-24T13:32:29.057Z,166.70
2019-03-24T13:34:57.468Z,160.13
2019-03-24T13:37:25.883Z,156.53
2019-03-24T13:39:54.124Z,169.07
2019-03-24T13:42:22.301Z,154.77
2019-03-24T13:44:50.745Z,165.60
2019-03-24T13:47:19.546Z,160.73
2019-03-24T13:49:48.016Z,185.73
2019-03-24T13:52:16.288Z,157.43
2019-03-24T13:54:44.675Z,186.00
2019-03-24T13:57:13.151Z,159.13
2019-03-24T13:59:42.491Z,160.37
2019-03-24T14:02:11.012Z,184.07
2019-03-24T14:04:39.295Z,167.37
2019-03-24T14:07:08.103Z,154.20
2019-03-24T14:09:36.577Z,163.97
2019-03-24T14:12:06.368Z,153.70
2019-03-24T14:14:35.069Z,162.63
2019-03-24T14:17:03.589Z,154.23
2019-03-24T14:19:32.250Z,167.43
2019-03-24T14:22:00.561Z,145.50
2019-03-24T14:24:28.888Z,157.83
2019-03-24T14:26:57.274Z,166.70
2019-03-24T14:29:27.204Z,166.13
2019-03-24T14:31:55.490Z,143.83
2019-03-24T14:34:23.796Z,155.73
2019-03-24T14:36:52.330Z,147.17
2019-03-24T14:39:20.706Z,172.67
2019-03-24T14:41:49.395Z,141.10
2019-03-24T14:44:18.058Z,157.10
2019-03-24T14:46:46.400Z,141.43
2019-03-24T14:49:14.704Z,163.17
2019-03-24T14:51:43.931Z,151.57
2019-03-24T14:54:13.323Z,154.90
2019-03-24T14:56:41.880Z,144.53
2019-03-24T14:59:10.782Z,154.70
2019-03-24T15:01:40.094Z,137.80
2019-03-24T15:04:08.406Z,179.50
2019-03-24T15:06:37.064Z,142.27
2019-03-24T15:09:07.040Z,149.20
2019-03-24T15:11:35.426Z,134.50
2019-03-24T15:14:03.942Z,140.53
2019-03-24T15:16:32.395Z,142.27
2019-03-24T15:19:00.697Z,140.57
2019-03-24T15:21:28.935Z,140.87
2019-03-24T15:23:57.279Z,136.03
2019-03-24T15:26:25.516Z,127.37
2019-03-24T15:28:54.494Z,133.30
2019-03-24T15:31:22.697Z,133.13
2019-03-24T15:33:50.821Z,131.27
2019-03-24T15:36:20.510Z,126.27
2019-03-24T15:38:48.918Z,134.47
2019-03-24T15:41:18.362Z,143.73
2019-03-24T15:43:46.723Z,123.57
2019-03-24T15:46:15.137Z,127.93
2019-03-24T15:48:43.389Z,138.17
2019-03-24T15:51:16.927Z,128.97
2019-03-24T15:53:42.020Z,131.77
2019-03-24T15:56:10.510Z,128.67
2019-03-24T15:58:38.716Z,146.07
2019-03-24T16:01:07.004Z,129.90
2019-03-24T16:03:35.368Z,131.60
2019-03-24T16:06:03.949Z,133.43
2019-03-24T16:08:34.092Z,128.57
2019-03-24T16:11:03.634Z,123.63
2019-03-24T16:13:31.902Z,126.83
2019-03-24T16:16:00.155Z,125.90
2019-03-24T16:18:29.177Z,141.93
2019-03-24T16:20:58.430Z,130.27
2019-03-24T16:23:26.633Z,132.83
2019-03-24T16:25:55.945Z,127.10
2019-03-24T16:28:24.437Z,136.30
2019-03-24T16:30:54.485Z,136.67
2019-03-24T16:33:24.763Z,129.97
2019-03-24T16:35:53.119Z,135.87
2019-03-24T16:38:21.341Z,131.27
2019-03-24T16:40:49.627Z,129.27
2019-03-24T16:43:19.745Z,144.27
2019-03-24T16:45:48.244Z,130.87
2019-03-24T16:48:19.007Z,143.90
2019-03-24T16:50:47.341Z,140.67
2019-03-24T16:53:17.581Z,135.63
2019-03-24T16:55:51.039Z,154.23
2019-03-24T16:58:19.753Z,136.53
2019-03-24T17:00:48.275Z,139.43
2019-03-24T17:03:16.673Z,130.43
2019-03-24T17:05:48.925Z,130.57
2019-03-24T17:08:17.667Z,129.27
2019-03-24T17:11:05.941Z,124.10
2019-03-24T17:13:34.285Z,135.90
2019-03-24T17:16:04.147Z,129.97
2019-03-24T17:18:32.713Z,154.27
2019-03-24T17:21:02.425Z,151.43
2019-03-24T17:23:31.558Z,134.83
2019-03-24T17:25:59.883Z,134.67
2019-03-24T17:28:28.266Z,128.17
2019-03-24T17:30:56.525Z,144.97
2019-03-24T17:33:24.816Z,131.77
2019-03-24T17:35:53.405Z,137.10
2019-03-24T17:38:23.178Z,137.23
2019-03-24T17:40:54.706Z,132.07
2019-03-24T17:43:23.061Z,162.53
2019-03-24T17:45:51.298Z,134.63
2019-03-24T17:48:19.680Z,137.17
2019-03-24T17:50:48.198Z,144.20
2019-03-24T17:53:17.583Z,154.57
2019-03-24T17:55:46.173Z,133.47
2019-03-24T17:58:14.603Z,140.50
2019-03-24T18:00:51.338Z,152.97
2019-03-24T18:03:19.718Z,148.00
2019-03-24T18:05:47.946Z,142.07
2019-03-24T18:08:17.245Z,141.43
2019-03-24T18:10:45.522Z,143.37
2019-03-24T18:13:14.650Z,144.43
2019-03-24T18:15:44.027Z,140.87
2019-03-24T18:18:12.773Z,145.27
2019-03-24T18:20:41.826Z,165.80
2019-03-24T18:23:10.316Z,146.07
2019-03-24T18:25:39.034Z,134.07
2019-03-24T18:28:07.580Z,137.33
2019-03-24T18:30:37.303Z,134.63
2019-03-24T18:33:05.638Z,136.00
2019-03-24T18:35:34.067Z,141.33
2019-03-24T18:38:02.829Z,155.70
2019-03-24T18:40:31.428Z,138.13
2019-03-24T18:43:00.814Z,141.00
2019-03-24T18:45:30.885Z,140.30
2019-03-24T18:47:59.826Z,145.33
2019-03-24T18:50:28.594Z,142.00
2019-03-24T18:52:59.041Z,150.50
2019-03-24T18:55:28.109Z,140.30
2019-03-24T18:57:56.606Z,171.73
2019-03-24T19:00:25.240Z,144.20
2019-03-24T19:02:55.897Z,148.33
2019-03-24T19:05:24.210Z,136.17
2019-03-24T19:07:52.632Z,146.33
2019-03-24T19:10:21.041Z,145.40
2019-03-24T19:12:49.451Z,151.13
2019-03-24T19:15:20.439Z,174.30
2019-03-24T19:17:48.800Z,148.57
2019-03-24T19:20:17.392Z,155.00
2019-03-24T19:22:46.868Z,155.83
2019-03-24T19:25:17.123Z,152.73
2019-03-24T19:27:45.522Z,169.00
2019-03-24T19:30:15.811Z,158.53
2019-03-24T19:32:49.514Z,180.13
2019-03-24T19:35:18.574Z,160.47
2019-03-24T19:37:51.053Z,165.77
2019-03-24T19:40:30.120Z,185.40
2019-03-24T19:42:58.602Z,160.77
2019-03-24T19:45:27.902Z,180.77
2019-03-24T19:47:56.627Z,170.40
2019-03-24T19:50:25.948Z,177.03
2019-03-24T19:52:54.466Z,169.30
2019-03-24T19:55:22.905Z,167.37
2019-03-24T19:57:51.358Z,174.90
2019-03-24T20:00:20.581Z,156.57
2019-03-24T20:02:49.357Z,158.27
2019-03-24T20:05:18.497Z,158.30
2019-03-24T20:07:48.242Z,169.70
2019-03-24T20:10:16.927Z,165.00
2019-03-24T20:12:45.433Z,167.17
2019-03-24T20:15:14.001Z,172.50
2019-03-24T20:17:42.669Z,171.63
2019-03-24T20:20:11.480Z,170.83
2019-03-24T20:22:40.781Z,189.03
2019-03-24T20:25:09.522Z,163.17
2019-03-24T20:27:38.426Z,161.23
2019-03-24T20:30:07.811Z,165.30
2019-03-24T20:32:36.287Z,169.50
2019-03-24T20:35:05.905Z,178.57
2019-03-24T20:37:35.249Z,160.67
2019-03-24T20:40:04.206Z,201.33
2019-03-24T20:42:32.651Z,183.13
2019-03-24T20:45:00.990Z,170.23
2019-03-24T20:47:30.524Z,174.80
2019-03-24T20:49:59.023Z,185.40
2019-03-24T20:52:28.991Z,183.43
2019-03-24T20:54:57.621Z,194.17
2019-03-24T20:57:26.076Z,188.43
2019-03-24T20:59:58.316Z,223.83
2019-03-24T21:02:27.508Z,171.10
2019-03-24T21:04:58.686Z,196.13
2019-03-24T21:07:29.402Z,172.37
2019-03-24T21:09:57.774Z,174.40
2019-03-24T21:12:26.174Z,171.80
2019-03-24T21:14:54.430Z,181.37
2019-03-24T21:17:22.852Z,183.90
2019-03-24T21:19:51.215Z,181.57
2019-03-24T21:22:20.558Z,171.87
2019-03-24T21:24:49.930Z,179.30
2019-03-24T21:27:18.310Z,163.43
2019-03-24T21:29:46.955Z,181.97
2019-03-24T21:32:15.144Z,167.27
2019-03-24T21:34:43.307Z,190.83
2019-03-24T21:37:11.708Z,177.23
2019-03-24T21:39:40.017Z,192.03
2019-03-24T21:42:08.466Z,199.80
2019-03-24T21:44:36.921Z,162.47
2019-03-24T21:47:05.944Z,140.33
2019-03-24T21:49:34.453Z,167.57
2019-03-24T21:52:03.311Z,151.30
2019-03-24T21:54:32.225Z,154.40
2019-03-24T21:57:00.577Z,138.67
2019-03-24T21:59:28.857Z,140.47
2019-03-24T22:01:57.281Z,133.90
2019-03-24T22:04:25.722Z,138.17
2019-03-24T22:06:53.964Z,133.03
2019-03-24T22:09:22.404Z,141.37
2019-03-24T22:11:50.687Z,122.43
2019-03-24T22:14:19.024Z,135.10
2019-03-24T22:16:47.427Z,123.23
2019-03-24T22:19:15.783Z,128.23
2019-03-24T22:21:45.053Z,120.93
2019-03-24T22:24:13.510Z,131.43
2019-03-24T22:26:41.905Z,122.07
2019-03-24T22:29:10.181Z,124.80
2019-03-24T22:31:38.555Z,137.50
2019-03-24T22:34:06.927Z,127.93
2019-03-24T22:36:35.208Z,129.70
2019-03-24T22:39:05.638Z,125.13
2019-03-24T22:41:33.820Z,123.60
2019-03-24T22:44:02.104Z,114.90
2019-03-24T22:46:30.487Z,118.97
2019-03-24T22:48:58.777Z,118.40
2019-03-24T22:51:27.285Z,135.27
2019-03-24T22:54:03.216Z,114.27
2019-03-24T22:56:26.225Z,120.03
2019-03-24T22:58:54.511Z,121.53
2019-03-24T23:01:23.133Z,125.00
2019-03-24T23:03:51.672Z,117.43
2019-03-24T23:06:20.934Z,122.03
2019-03-24T23:08:49.278Z,121.10
2019-03-24T23:11:17.422Z,114.33
2019-03-24T23:13:45.725Z,122.80
2019-03-24T23:16:14.081Z,125.13
2019-03-24T23:18:42.414Z,117.00
2019-03-24T23:21:10.566Z,109.57
2019-03-24T23:23:38.798Z,114.17
2019-03-24T23:26:07.204Z,119.63
2019-03-24T23:28:35.492Z,132.00
2019-03-24T23:31:04.009Z,121.13
2019-03-24T23:33:32.544Z,113.23
2019-03-24T23:36:01.047Z,124.07
2019-03-24T23:38:29.193Z,114.77
2019-03-24T23:40:57.378Z,111.00
2019-03-24T23:43:25.580Z,114.03
2019-03-24T23:45:53.965Z,119.73
2019-03-24T23:48:22.237Z,113.00
2019-03-24T23:50:50.656Z,113.30
2019-03-24T23:53:18.919Z,128.87
2019-03-24T23:55:47.184Z,110.73
2019-03-24T23:58:15.603Z,110.77
